sensor_id;sensor_type;location;lat;lon;timestamp;temperature;humidity
22986;DHT22;11659;51.092;7.080;2022-11-13T00:00:45;9.30;99.90
22986;DHT22;11659;51.092;7.080;2022-11-13T00:03:30;9.30;99.90
22986;DHT22;11659;51.092;7.080;2022-11-13T00:06:16;9.30;99.90
22986;DHT22;11659;51.092;7.080;2022-11-13T00:09:01;9.30;99.90
22986;DHT22;11659;51.092;7.080;2022-11-13T00:11:46;9.20;99.90
22986;DHT22;11659;51.092;7.080;2022-11-13T00:14:30;9.20;99.90
22986;DHT22;11659;51.092;7.080;2022-11-13T00:17:15;9.20;99.90
22986;DHT22;11659;51.092;7.080;2022-11-13T00:20:01;9.10;99.90
22986;DHT22;11659;51.092;7.080;2022-11-13T00:22:45;9.10;99.90
22986;DHT22;11659;51.092;7.080;2022-11-13T00:25:30;9.00;99.90
22986;DHT22;11659;51.092;7.080;2022-11-13T00:28:14;9.00;99.90
22986;DHT22;11659;51.092;7.080;2022-11-13T00:31:00;8.90;99.90
22986;DHT22;11659;51.092;7.080;2022-11-13T00:33:45;9.40;99.90
22986;DHT22;11659;51.092;7.080;2022-11-13T00:36:30;8.80;99.90
22986;DHT22;11659;51.092;7.080;2022-11-13T00:39:15;8.70;99.90
22986;DHT22;11659;51.092;7.080;2022-11-13T00:41:59;8.70;99.90
22986;DHT22;11659;51.092;7.080;2022-11-13T00:44:43;8.70;99.90
22986;DHT22;11659;51.092;7.080;2022-11-13T00:47:28;8.60;99.90
22986;DHT22;11659;51.092;7.080;2022-11-13T00:50:12;8.70;99.90
22986;DHT22;11659;51.092;7.080;2022-11-13T00:52:58;8.70;99.90
22986;DHT22;11659;51.092;7.080;2022-11-13T00:55:43;8.70;99.90
22986;DHT22;11659;51.092;7.080;2022-11-13T00:58:28;8.70;99.90
22986;DHT22;11659;51.092;7.080;2022-11-13T01:01:15;8.70;99.90
22986;DHT22;11659;51.092;7.080;2022-11-13T01:04:00;8.70;99.90
22986;DHT22;11659;51.092;7.080;2022-11-13T01:06:44;8.70;99.90
22986;DHT22;11659;51.092;7.080;2022-11-13T01:09:30;8.70;99.90
22986;DHT22;11659;51.092;7.080;2022-11-13T01:12:18;9.50;99.90
22986;DHT22;11659;51.092;7.080;2022-11-13T01:15:03;8.50;99.90
22986;DHT22;11659;51.092;7.080;2022-11-13T01:17:48;8.40;99.90
22986;DHT22;11659;51.092;7.080;2022-11-13T01:20:34;8.30;99.90
22986;DHT22;11659;51.092;7.080;2022-11-13T01:23:18;8.30;99.90
22986;DHT22;11659;51.092;7.080;2022-11-13T01:26:06;8.20;99.90
22986;DHT22;11659;51.092;7.080;2022-11-13T01:28:52;8.20;99.90
22986;DHT22;11659;51.092;7.080;2022-11-13T01:31:37;8.10;99.90
22986;DHT22;11659;51.092;7.080;2022-11-13T01:34:21;8.10;99.90
22986;DHT22;11659;51.092;7.080;2022-11-13T01:37:06;8.00;99.90
22986;DHT22;11659;51.092;7.080;2022-11-13T01:39:50;8.00;99.90
22986;DHT22;11659;51.092;7.080;2022-11-13T01:42:36;7.90;99.90
22986;DHT22;11659;51.092;7.080;2022-11-13T01:48:46;7.90;99.90
22986;DHT22;11659;51.092;7.080;2022-11-13T01:51:33;7.80;99.90
22986;DHT22;11659;51.092;7.080;2022-11-13T01:54:22;7.70;99.90
22986;DHT22;11659;51.092;7.080;2022-11-13T01:57:07;7.70;99.90
22986;DHT22;11659;51.092;7.080;2022-11-13T01:59:57;7.60;99.90
22986;DHT22;11659;51.092;7.080;2022-11-13T02:02:42;7.50;99.90
22986;DHT22;11659;51.092;7.080;2022-11-13T02:05:27;7.50;99.90
22986;DHT22;11659;51.092;7.080;2022-11-13T02:08:11;7.40;99.90
22986;DHT22;11659;51.092;7.080;2022-11-13T02:10:56;7.40;99.90
22986;DHT22;11659;51.092;7.080;2022-11-13T02:13:41;7.30;99.90
22986;DHT22;11659;51.092;7.080;2022-11-13T02:16:29;7.30;99.90
22986;DHT22;11659;51.092;7.080;2022-11-13T02:19:21;7.20;99.90
22986;DHT22;11659;51.092;7.080;2022-11-13T02:22:12;7.20;99.90
22986;DHT22;11659;51.092;7.080;2022-11-13T02:25:01;7.20;99.90
22986;DHT22;11659;51.092;7.080;2022-11-13T02:27:47;7.20;99.90
22986;DHT22;11659;51.092;7.080;2022-11-13T02:30:34;7.20;99.90
22986;DHT22;11659;51.092;7.080;2022-11-13T02:33:23;7.10;99.90
22986;DHT22;11659;51.092;7.080;2022-11-13T02:36:09;7.10;99.90
22986;DHT22;11659;51.092;7.080;2022-11-13T02:38:55;7.10;99.90
22986;DHT22;11659;51.092;7.080;2022-11-13T02:41:42;7.00;99.90
22986;DHT22;11659;51.092;7.080;2022-11-13T02:44:26;7.00;99.90
22986;DHT22;11659;51.092;7.080;2022-11-13T02:47:11;6.90;99.90
22986;DHT22;11659;51.092;7.080;2022-11-13T02:49:55;6.90;99.90
22986;DHT22;11659;51.092;7.080;2022-11-13T02:52:40;6.80;99.90
22986;DHT22;11659;51.092;7.080;2022-11-13T02:55:24;6.80;99.90
22986;DHT22;11659;51.092;7.080;2022-11-13T02:58:11;6.70;99.90
22986;DHT22;11659;51.092;7.080;2022-11-13T03:00:55;6.70;99.90
22986;DHT22;11659;51.092;7.080;2022-11-13T03:03:40;6.60;99.90
22986;DHT22;11659;51.092;7.080;2022-11-13T03:06:24;6.60;99.90
22986;DHT22;11659;51.092;7.080;2022-11-13T03:09:09;6.60;99.90
22986;DHT22;11659;51.092;7.080;2022-11-13T03:11:53;6.60;99.90
22986;DHT22;11659;51.092;7.080;2022-11-13T03:14:39;6.50;99.90
22986;DHT22;11659;51.092;7.080;2022-11-13T03:17:24;6.50;99.90
22986;DHT22;11659;51.092;7.080;2022-11-13T03:20:08;6.50;99.90
22986;DHT22;11659;51.092;7.080;2022-11-13T03:22:53;6.50;99.90
22986;DHT22;11659;51.092;7.080;2022-11-13T03:25:37;6.50;99.90
22986;DHT22;11659;51.092;7.080;2022-11-13T03:28:22;6.50;99.90
22986;DHT22;11659;51.092;7.080;2022-11-13T03:31:10;6.50;99.90
22986;DHT22;11659;51.092;7.080;2022-11-13T03:33:55;6.50;99.90
22986;DHT22;11659;51.092;7.080;2022-11-13T03:36:39;6.40;99.90
22986;DHT22;11659;51.092;7.080;2022-11-13T03:39:24;6.40;99.90
22986;DHT22;11659;51.092;7.080;2022-11-13T03:42:09;6.30;99.90
22986;DHT22;11659;51.092;7.080;2022-11-13T03:44:53;6.20;99.90
22986;DHT22;11659;51.092;7.080;2022-11-13T03:47:39;6.20;99.90
22986;DHT22;11659;51.092;7.080;2022-11-13T03:50:23;6.20;99.90
22986;DHT22;11659;51.092;7.080;2022-11-13T03:53:08;6.10;99.90
22986;DHT22;11659;51.092;7.080;2022-11-13T03:55:52;6.00;99.90
22986;DHT22;11659;51.092;7.080;2022-11-13T03:58:37;6.10;99.90
22986;DHT22;11659;51.092;7.080;2022-11-13T04:01:22;6.00;99.90
22986;DHT22;11659;51.092;7.080;2022-11-13T04:04:07;6.00;99.90
22986;DHT22;11659;51.092;7.080;2022-11-13T04:06:51;6.00;99.90
22986;DHT22;11659;51.092;7.080;2022-11-13T04:09:36;6.00;99.90
22986;DHT22;11659;51.092;7.080;2022-11-13T04:12:20;5.90;99.90
22986;DHT22;11659;51.092;7.080;2022-11-13T04:15:06;5.90;99.90
22986;DHT22;11659;51.092;7.080;2022-11-13T04:17:50;5.80;99.90
22986;DHT22;11659;51.092;7.080;2022-11-13T04:20:36;5.80;99.90
22986;DHT22;11659;51.092;7.080;2022-11-13T04:23:21;5.80;99.90
22986;DHT22;11659;51.092;7.080;2022-11-13T04:26:05;5.70;99.90
22986;DHT22;11659;51.092;7.080;2022-11-13T04:28:50;5.70;99.90
22986;DHT22;11659;51.092;7.080;2022-11-13T04:31:35;5.70;99.90
22986;DHT22;11659;51.092;7.080;2022-11-13T04:34:19;5.70;99.90
22986;DHT22;11659;51.092;7.080;2022-11-13T04:37:05;5.70;99.90
22986;DHT22;11659;51.092;7.080;2022-11-13T04:39:49;5.70;99.90
22986;DHT22;11659;51.092;7.080;2022-11-13T04:42:34;5.70;99.90
22986;DHT22;11659;51.092;7.080;2022-11-13T04:45:34;5.70;99.90
22986;DHT22;11659;51.092;7.080;2022-11-13T04:48:19;5.70;99.90
22986;DHT22;11659;51.092;7.080;2022-11-13T04:51:04;5.60;99.90
22986;DHT22;11659;51.092;7.080;2022-11-13T04:53:50;5.60;99.90
22986;DHT22;11659;51.092;7.080;2022-11-13T04:56:34;5.60;99.90
22986;DHT22;11659;51.092;7.080;2022-11-13T04:59:18;5.60;99.90
22986;DHT22;11659;51.092;7.080;2022-11-13T05:02:04;5.60;99.90
22986;DHT22;11659;51.092;7.080;2022-11-13T05:04:48;5.60;99.90
22986;DHT22;11659;51.092;7.080;2022-11-13T05:07:33;5.60;99.90
22986;DHT22;11659;51.092;7.080;2022-11-13T05:10:18;5.60;99.90
22986;DHT22;11659;51.092;7.080;2022-11-13T05:13:03;5.50;99.90
22986;DHT22;11659;51.092;7.080;2022-11-13T05:15:48;5.50;99.90
22986;DHT22;11659;51.092;7.080;2022-11-13T05:18:33;5.50;99.90
22986;DHT22;11659;51.092;7.080;2022-11-13T05:21:18;5.50;99.90
22986;DHT22;11659;51.092;7.080;2022-11-13T05:24:03;5.50;99.90
22986;DHT22;11659;51.092;7.080;2022-11-13T05:26:50;5.50;99.90
22986;DHT22;11659;51.092;7.080;2022-11-13T05:29:34;5.40;99.90
22986;DHT22;11659;51.092;7.080;2022-11-13T05:32:19;5.40;99.90
22986;DHT22;11659;51.092;7.080;2022-11-13T05:35:04;5.40;99.90
22986;DHT22;11659;51.092;7.080;2022-11-13T05:37:49;5.40;99.90
22986;DHT22;11659;51.092;7.080;2022-11-13T05:40:33;5.40;99.90
22986;DHT22;11659;51.092;7.080;2022-11-13T05:43:19;5.30;99.90
22986;DHT22;11659;51.092;7.080;2022-11-13T05:46:06;5.40;99.90
22986;DHT22;11659;51.092;7.080;2022-11-13T05:48:52;5.40;99.90
22986;DHT22;11659;51.092;7.080;2022-11-13T05:51:37;5.40;99.90
22986;DHT22;11659;51.092;7.080;2022-11-13T05:54:21;5.40;99.90
22986;DHT22;11659;51.092;7.080;2022-11-13T05:57:06;5.40;99.90
22986;DHT22;11659;51.092;7.080;2022-11-13T05:59:52;5.40;99.90
22986;DHT22;11659;51.092;7.080;2022-11-13T06:02:36;5.40;99.90
22986;DHT22;11659;51.092;7.080;2022-11-13T06:05:21;5.40;99.90
22986;DHT22;11659;51.092;7.080;2022-11-13T06:08:05;5.30;99.90
22986;DHT22;11659;51.092;7.080;2022-11-13T06:10:49;5.30;99.90
22986;DHT22;11659;51.092;7.080;2022-11-13T06:13:34;5.30;99.90
22986;DHT22;11659;51.092;7.080;2022-11-13T06:16:21;5.30;99.90
22986;DHT22;11659;51.092;7.080;2022-11-13T06:19:08;5.30;99.90
22986;DHT22;11659;51.092;7.080;2022-11-13T06:21:53;5.30;99.90
22986;DHT22;11659;51.092;7.080;2022-11-13T06:24:37;5.30;99.90
22986;DHT22;11659;51.092;7.080;2022-11-13T06:27:22;5.30;99.90
22986;DHT22;11659;51.092;7.080;2022-11-13T06:30:07;5.30;99.90
22986;DHT22;11659;51.092;7.080;2022-11-13T06:32:53;5.30;99.90
22986;DHT22;11659;51.092;7.080;2022-11-13T06:35:37;5.30;99.90
22986;DHT22;11659;51.092;7.080;2022-11-13T06:38:22;5.30;99.90
22986;DHT22;11659;51.092;7.080;2022-11-13T06:41:08;5.50;99.90
22986;DHT22;11659;51.092;7.080;2022-11-13T06:43:52;5.30;99.90
22986;DHT22;11659;51.092;7.080;2022-11-13T06:46:37;5.40;99.90
22986;DHT22;11659;51.092;7.080;2022-11-13T06:49:23;5.40;99.90
22986;DHT22;11659;51.092;7.080;2022-11-13T06:52:07;5.50;99.90
22986;DHT22;11659;51.092;7.080;2022-11-13T06:54:51;5.60;99.90
22986;DHT22;11659;51.092;7.080;2022-11-13T06:57:36;5.70;99.90
22986;DHT22;11659;51.092;7.080;2022-11-13T07:00:21;5.80;99.90
22986;DHT22;11659;51.092;7.080;2022-11-13T07:03:05;5.90;99.90
22986;DHT22;11659;51.092;7.080;2022-11-13T07:05:51;5.90;99.90
22986;DHT22;11659;51.092;7.080;2022-11-13T07:08:36;6.00;99.90
22986;DHT22;11659;51.092;7.080;2022-11-13T07:11:21;6.00;99.90
22986;DHT22;11659;51.092;7.080;2022-11-13T07:14:08;6.10;99.90
22986;DHT22;11659;51.092;7.080;2022-11-13T07:16:52;6.20;99.90
22986;DHT22;11659;51.092;7.080;2022-11-13T07:19:37;6.20;99.90
22986;DHT22;11659;51.092;7.080;2022-11-13T07:22:22;6.30;99.90
22986;DHT22;11659;51.092;7.080;2022-11-13T07:25:08;6.40;99.90
22986;DHT22;11659;51.092;7.080;2022-11-13T07:27:52;6.50;99.90
22986;DHT22;11659;51.092;7.080;2022-11-13T07:30:37;6.60;99.90
22986;DHT22;11659;51.092;7.080;2022-11-13T07:33:21;6.80;99.90
22986;DHT22;11659;51.092;7.080;2022-11-13T07:36:07;6.90;99.90
22986;DHT22;11659;51.092;7.080;2022-11-13T07:38:53;8.00;99.90
22986;DHT22;11659;51.092;7.080;2022-11-13T07:41:38;7.10;99.90
22986;DHT22;11659;51.092;7.080;2022-11-13T07:44:22;7.20;99.90
22986;DHT22;11659;51.092;7.080;2022-11-13T07:47:06;7.20;99.90
22986;DHT22;11659;51.092;7.080;2022-11-13T07:49:51;7.30;99.90
22986;DHT22;11659;51.092;7.080;2022-11-13T07:52:36;7.40;99.90
22986;DHT22;11659;51.092;7.080;2022-11-13T07:55:22;7.50;99.90
22986;DHT22;11659;51.092;7.080;2022-11-13T07:58:06;7.70;99.90
22986;DHT22;11659;51.092;7.080;2022-11-13T08:00:51;7.70;99.90
22986;DHT22;11659;51.092;7.080;2022-11-13T08:03:35;7.80;99.90
22986;DHT22;11659;51.092;7.080;2022-11-13T08:06:20;7.80;99.90
22986;DHT22;11659;51.092;7.080;2022-11-13T08:09:05;8.00;99.90
22986;DHT22;11659;51.092;7.080;2022-11-13T08:11:50;8.00;99.90
22986;DHT22;11659;51.092;7.080;2022-11-13T08:14:35;8.20;99.90
22986;DHT22;11659;51.092;7.080;2022-11-13T08:17:19;8.30;99.90
22986;DHT22;11659;51.092;7.080;2022-11-13T08:20:05;8.40;99.90
22986;DHT22;11659;51.092;7.080;2022-11-13T08:22:49;8.50;99.90
22986;DHT22;11659;51.092;7.080;2022-11-13T08:25:35;8.70;99.90
22986;DHT22;11659;51.092;7.080;2022-11-13T08:28:20;8.80;99.90
22986;DHT22;11659;51.092;7.080;2022-11-13T08:31:09;9.00;99.90
22986;DHT22;11659;51.092;7.080;2022-11-13T08:33:54;9.10;99.90
22986;DHT22;11659;51.092;7.080;2022-11-13T08:36:38;9.30;99.90
22986;DHT22;11659;51.092;7.080;2022-11-13T08:39:23;9.50;99.90
22986;DHT22;11659;51.092;7.080;2022-11-13T08:42:08;9.70;99.90
22986;DHT22;11659;51.092;7.080;2022-11-13T08:44:53;9.80;99.90
22986;DHT22;11659;51.092;7.080;2022-11-13T08:47:38;10.10;99.90
22986;DHT22;11659;51.092;7.080;2022-11-13T08:50:22;10.20;99.90
22986;DHT22;11659;51.092;7.080;2022-11-13T08:53:07;10.40;99.90
22986;DHT22;11659;51.092;7.080;2022-11-13T08:55:51;10.50;99.90
22986;DHT22;11659;51.092;7.080;2022-11-13T08:58:36;10.70;99.90
22986;DHT22;11659;51.092;7.080;2022-11-13T09:01:21;10.80;99.90
22986;DHT22;11659;51.092;7.080;2022-11-13T09:04:06;10.90;99.90
22986;DHT22;11659;51.092;7.080;2022-11-13T09:06:51;11.10;99.90
22986;DHT22;11659;51.092;7.080;2022-11-13T09:09:35;11.20;99.90
22986;DHT22;11659;51.092;7.080;2022-11-13T09:12:21;11.30;99.90
22986;DHT22;11659;51.092;7.080;2022-11-13T09:15:07;11.50;99.90
22986;DHT22;11659;51.092;7.080;2022-11-13T09:17:56;11.60;99.90
22986;DHT22;11659;51.092;7.080;2022-11-13T09:20:40;11.80;99.90
22986;DHT22;11659;51.092;7.080;2022-11-13T09:23:25;11.90;99.90
22986;DHT22;11659;51.092;7.080;2022-11-13T09:26:09;12.00;99.90
22986;DHT22;11659;51.092;7.080;2022-11-13T09:28:54;12.20;99.70
22986;DHT22;11659;51.092;7.080;2022-11-13T09:31:39;12.30;99.50
22986;DHT22;11659;51.092;7.080;2022-11-13T09:34:26;12.50;99.30
22986;DHT22;11659;51.092;7.080;2022-11-13T09:37:13;12.60;99.00
22986;DHT22;11659;51.092;7.080;2022-11-13T09:39:58;12.80;98.60
22986;DHT22;11659;51.092;7.080;2022-11-13T09:42:43;13.00;98.10
22986;DHT22;11659;51.092;7.080;2022-11-13T09:45:29;13.20;97.70
22986;DHT22;11659;51.092;7.080;2022-11-13T09:48:22;13.40;97.40
22986;DHT22;11659;51.092;7.080;2022-11-13T09:51:14;13.60;96.80
22986;DHT22;11659;51.092;7.080;2022-11-13T09:54:04;13.90;96.20
22986;DHT22;11659;51.092;7.080;2022-11-13T09:56:55;14.10;95.70
22986;DHT22;11659;51.092;7.080;2022-11-13T09:59:43;14.30;95.40
22986;DHT22;11659;51.092;7.080;2022-11-13T10:02:39;14.50;95.00
22986;DHT22;11659;51.092;7.080;2022-11-13T10:05:31;14.70;94.40
22986;DHT22;11659;51.092;7.080;2022-11-13T10:08:23;14.90;93.80
22986;DHT22;11659;51.092;7.080;2022-11-13T10:11:13;15.00;93.40
22986;DHT22;11659;51.092;7.080;2022-11-13T10:14:02;15.20;92.90
22986;DHT22;11659;51.092;7.080;2022-11-13T10:16:51;15.40;92.80
22986;DHT22;11659;51.092;7.080;2022-11-13T10:19:40;15.50;92.90
22986;DHT22;11659;51.092;7.080;2022-11-13T10:22:29;15.60;92.80
22986;DHT22;11659;51.092;7.080;2022-11-13T10:25:21;15.70;92.80
22986;DHT22;11659;51.092;7.080;2022-11-13T10:28:18;15.80;92.60
22986;DHT22;11659;51.092;7.080;2022-11-13T10:31:03;16.00;92.10
22986;DHT22;11659;51.092;7.080;2022-11-13T10:33:47;16.10;91.60
22986;DHT22;11659;51.092;7.080;2022-11-13T10:36:36;16.20;91.50
22986;DHT22;11659;51.092;7.080;2022-11-13T10:39:22;16.40;91.40
22986;DHT22;11659;51.092;7.080;2022-11-13T10:42:19;16.50;90.60
22986;DHT22;11659;51.092;7.080;2022-11-13T10:45:13;16.70;89.70
22986;DHT22;11659;51.092;7.080;2022-11-13T10:47:57;16.90;90.00
22986;DHT22;11659;51.092;7.080;2022-11-13T10:50:42;17.20;90.00
22986;DHT22;11659;51.092;7.080;2022-11-13T10:53:37;17.30;88.80
22986;DHT22;11659;51.092;7.080;2022-11-13T10:56:26;17.40;86.50
22986;DHT22;11659;51.092;7.080;2022-11-13T10:59:14;17.60;86.20
22986;DHT22;11659;51.092;7.080;2022-11-13T11:02:08;17.80;86.80
22986;DHT22;11659;51.092;7.080;2022-11-13T11:05:03;17.90;87.90
22986;DHT22;11659;51.092;7.080;2022-11-13T11:07:49;18.10;87.90
22986;DHT22;11659;51.092;7.080;2022-11-13T11:10:35;18.30;87.80
22986;DHT22;11659;51.092;7.080;2022-11-13T11:13:21;18.40;87.60
22986;DHT22;11659;51.092;7.080;2022-11-13T11:16:10;18.60;86.40
22986;DHT22;11659;51.092;7.080;2022-11-13T11:18:59;18.80;86.40
22986;DHT22;11659;51.092;7.080;2022-11-13T11:21:46;19.00;86.10
22986;DHT22;11659;51.092;7.080;2022-11-13T11:24:33;19.20;86.20
22986;DHT22;11659;51.092;7.080;2022-11-13T11:27:24;19.40;87.30
22986;DHT22;11659;51.092;7.080;2022-11-13T11:30:17;19.50;87.50
22986;DHT22;11659;51.092;7.080;2022-11-13T11:33:10;19.70;87.90
22986;DHT22;11659;51.092;7.080;2022-11-13T11:35:59;19.80;87.80
22986;DHT22;11659;51.092;7.080;2022-11-13T11:38:51;20.80;87.90
22986;DHT22;11659;51.092;7.080;2022-11-13T11:41:41;20.20;87.50
22986;DHT22;11659;51.092;7.080;2022-11-13T11:44:31;20.40;88.20
22986;DHT22;11659;51.092;7.080;2022-11-13T11:47:17;20.60;88.40
22986;DHT22;11659;51.092;7.080;2022-11-13T11:50:05;20.80;89.20
22986;DHT22;11659;51.092;7.080;2022-11-13T11:52:59;21.00;89.40
22986;DHT22;11659;51.092;7.080;2022-11-13T11:56:06;21.20;89.60
22986;DHT22;11659;51.092;7.080;2022-11-13T11:59:08;21.60;89.70
22986;DHT22;11659;51.092;7.080;2022-11-13T12:02:27;21.90;87.60
22986;DHT22;11659;51.092;7.080;2022-11-13T12:05:22;22.40;87.10
22986;DHT22;11659;51.092;7.080;2022-11-13T12:08:17;22.80;84.90
22986;DHT22;11659;51.092;7.080;2022-11-13T12:11:11;23.00;80.80
22986;DHT22;11659;51.092;7.080;2022-11-13T12:14:06;23.20;79.60
22986;DHT22;11659;51.092;7.080;2022-11-13T12:17:03;23.30;80.80
22986;DHT22;11659;51.092;7.080;2022-11-13T12:19:52;23.50;80.20
22986;DHT22;11659;51.092;7.080;2022-11-13T12:22:47;23.70;80.00
22986;DHT22;11659;51.092;7.080;2022-11-13T12:25:37;23.70;80.00
22986;DHT22;11659;51.092;7.080;2022-11-13T12:28:32;23.80;80.80
22986;DHT22;11659;51.092;7.080;2022-11-13T12:31:38;23.80;81.10
22986;DHT22;11659;51.092;7.080;2022-11-13T12:34:27;23.70;81.10
22986;DHT22;11659;51.092;7.080;2022-11-13T12:37:16;23.70;81.10
22986;DHT22;11659;51.092;7.080;2022-11-13T12:40:06;23.70;80.60
22986;DHT22;11659;51.092;7.080;2022-11-13T12:42:55;23.60;80.60
22986;DHT22;11659;51.092;7.080;2022-11-13T12:45:50;23.70;80.80
22986;DHT22;11659;51.092;7.080;2022-11-13T12:48:36;23.90;81.40
22986;DHT22;11659;51.092;7.080;2022-11-13T12:51:21;24.20;80.30
22986;DHT22;11659;51.092;7.080;2022-11-13T12:54:08;24.30;79.40
22986;DHT22;11659;51.092;7.080;2022-11-13T12:57:06;24.20;79.20
22986;DHT22;11659;51.092;7.080;2022-11-13T12:59:54;23.90;78.80
22986;DHT22;11659;51.092;7.080;2022-11-13T13:02:50;23.70;79.80
22986;DHT22;11659;51.092;7.080;2022-11-13T13:06:12;23.80;79.00
22986;DHT22;11659;51.092;7.080;2022-11-13T13:09:15;23.90;78.40
22986;DHT22;11659;51.092;7.080;2022-11-13T13:12:10;24.10;78.40
22986;DHT22;11659;51.092;7.080;2022-11-13T13:15:06;24.20;78.20
22986;DHT22;11659;51.092;7.080;2022-11-13T13:18:04;24.20;76.90
22986;DHT22;11659;51.092;7.080;2022-11-13T13:21:00;24.20;76.40
22986;DHT22;11659;51.092;7.080;2022-11-13T13:23:47;24.30;76.60
22986;DHT22;11659;51.092;7.080;2022-11-13T13:26:43;24.30;76.20
22986;DHT22;11659;51.092;7.080;2022-11-13T13:29:32;24.00;75.70
22986;DHT22;11659;51.092;7.080;2022-11-13T13:32:21;23.70;75.30
22986;DHT22;11659;51.092;7.080;2022-11-13T13:35:12;23.40;75.60
22986;DHT22;11659;51.092;7.080;2022-11-13T13:38:03;23.50;75.70
22986;DHT22;11659;51.092;7.080;2022-11-13T13:41:00;23.50;75.40
22986;DHT22;11659;51.092;7.080;2022-11-13T13:44:00;23.40;75.00
22986;DHT22;11659;51.092;7.080;2022-11-13T13:46:48;23.30;75.60
22986;DHT22;11659;51.092;7.080;2022-11-13T13:49:33;23.20;76.60
22986;DHT22;11659;51.092;7.080;2022-11-13T13:52:22;23.00;76.80
22986;DHT22;11659;51.092;7.080;2022-11-13T13:55:16;22.80;77.00
22986;DHT22;11659;51.092;7.080;2022-11-13T13:58:06;22.60;77.20
22986;DHT22;11659;51.092;7.080;2022-11-13T14:00:56;22.30;78.00
22986;DHT22;11659;51.092;7.080;2022-11-13T14:03:42;22.10;78.80
22986;DHT22;11659;51.092;7.080;2022-11-13T14:06:27;22.10;79.50
22986;DHT22;11659;51.092;7.080;2022-11-13T14:09:16;22.20;79.10
22986;DHT22;11659;51.092;7.080;2022-11-13T14:12:03;22.10;78.80
22986;DHT22;11659;51.092;7.080;2022-11-13T14:14:48;22.00;78.70
22986;DHT22;11659;51.092;7.080;2022-11-13T14:17:33;21.70;78.90
22986;DHT22;11659;51.092;7.080;2022-11-13T14:20:19;21.30;80.10
22986;DHT22;11659;51.092;7.080;2022-11-13T14:23:04;21.00;80.60
22986;DHT22;11659;51.092;7.080;2022-11-13T14:25:49;20.60;80.80
22986;DHT22;11659;51.092;7.080;2022-11-13T14:28:43;20.20;81.30
22986;DHT22;11659;51.092;7.080;2022-11-13T14:31:30;19.80;82.10
22986;DHT22;11659;51.092;7.080;2022-11-13T14:34:18;19.40;83.10
22986;DHT22;11659;51.092;7.080;2022-11-13T14:37:17;19.10;84.50
22986;DHT22;11659;51.092;7.080;2022-11-13T14:40:11;18.80;85.60
22986;DHT22;11659;51.092;7.080;2022-11-13T14:42:58;18.50;86.30
22986;DHT22;11659;51.092;7.080;2022-11-13T14:45:52;18.30;86.60
22986;DHT22;11659;51.092;7.080;2022-11-13T14:48:37;18.20;86.80
22986;DHT22;11659;51.092;7.080;2022-11-13T14:51:24;18.00;87.50
22986;DHT22;11659;51.092;7.080;2022-11-13T14:54:28;17.70;88.30
22986;DHT22;11659;51.092;7.080;2022-11-13T14:57:14;17.50;89.30
22986;DHT22;11659;51.092;7.080;2022-11-13T15:00:11;17.30;90.00
22986;DHT22;11659;51.092;7.080;2022-11-13T15:02:57;17.10;90.40
22986;DHT22;11659;51.092;7.080;2022-11-13T15:05:42;16.90;90.70
22986;DHT22;11659;51.092;7.080;2022-11-13T15:08:26;16.70;91.10
22986;DHT22;11659;51.092;7.080;2022-11-13T15:11:14;16.60;91.40
22986;DHT22;11659;51.092;7.080;2022-11-13T15:13:58;16.40;91.80
22986;DHT22;11659;51.092;7.080;2022-11-13T15:16:44;17.00;92.20
22986;DHT22;11659;51.092;7.080;2022-11-13T15:19:30;16.00;92.10
22986;DHT22;11659;51.092;7.080;2022-11-13T15:22:18;15.90;92.30
22986;DHT22;11659;51.092;7.080;2022-11-13T15:25:04;16.10;92.70
22986;DHT22;11659;51.092;7.080;2022-11-13T15:27:50;15.70;92.90
22986;DHT22;11659;51.092;7.080;2022-11-13T15:30:35;15.60;93.20
22986;DHT22;11659;51.092;7.080;2022-11-13T15:33:20;15.40;93.40
22986;DHT22;11659;51.092;7.080;2022-11-13T15:36:07;15.80;93.80
22986;DHT22;11659;51.092;7.080;2022-11-13T15:38:52;15.10;93.90
22986;DHT22;11659;51.092;7.080;2022-11-13T15:41:37;15.10;94.50
22986;DHT22;11659;51.092;7.080;2022-11-13T15:44:23;14.90;94.40
22986;DHT22;11659;51.092;7.080;2022-11-13T15:47:26;14.80;94.70
22986;DHT22;11659;51.092;7.080;2022-11-13T15:50:11;14.60;95.20
22986;DHT22;11659;51.092;7.080;2022-11-13T15:52:56;14.40;95.20
22986;DHT22;11659;51.092;7.080;2022-11-13T15:55:41;14.20;95.60
22986;DHT22;11659;51.092;7.080;2022-11-13T15:58:25;14.00;95.90
22986;DHT22;11659;51.092;7.080;2022-11-13T16:01:12;13.90;96.10
22986;DHT22;11659;51.092;7.080;2022-11-13T16:03:57;13.80;96.20
22986;DHT22;11659;51.092;7.080;2022-11-13T16:06:45;13.80;96.40
22986;DHT22;11659;51.092;7.080;2022-11-13T16:09:30;13.70;96.40
22986;DHT22;11659;51.092;7.080;2022-11-13T16:12:14;13.60;96.60
22986;DHT22;11659;51.092;7.080;2022-11-13T16:14:59;13.50;96.70
22986;DHT22;11659;51.092;7.080;2022-11-13T16:17:47;13.30;97.00
22986;DHT22;11659;51.092;7.080;2022-11-13T16:20:32;13.20;97.40
22986;DHT22;11659;51.092;7.080;2022-11-13T16:23:17;13.00;97.70
22986;DHT22;11659;51.092;7.080;2022-11-13T16:26:02;12.90;98.00
22986;DHT22;11659;51.092;7.080;2022-11-13T16:28:51;12.70;98.30
22986;DHT22;11659;51.092;7.080;2022-11-13T16:31:36;12.50;98.70
22986;DHT22;11659;51.092;7.080;2022-11-13T16:34:22;12.40;98.90
22986;DHT22;11659;51.092;7.080;2022-11-13T16:37:12;12.40;99.10
22986;DHT22;11659;51.092;7.080;2022-11-13T16:39:57;12.90;99.50
22986;DHT22;11659;51.092;7.080;2022-11-13T16:42:41;12.10;99.60
22986;DHT22;11659;51.092;7.080;2022-11-13T16:45:26;12.00;99.90
22986;DHT22;11659;51.092;7.080;2022-11-13T16:48:12;11.80;99.90
22986;DHT22;11659;51.092;7.080;2022-11-13T16:50:58;11.70;99.90
22986;DHT22;11659;51.092;7.080;2022-11-13T16:53:42;11.50;99.90
22986;DHT22;11659;51.092;7.080;2022-11-13T16:56:27;11.40;99.90
22986;DHT22;11659;51.092;7.080;2022-11-13T16:59:13;11.40;99.90
22986;DHT22;11659;51.092;7.080;2022-11-13T17:01:57;11.30;99.90
22986;DHT22;11659;51.092;7.080;2022-11-13T17:04:42;11.20;99.90
22986;DHT22;11659;51.092;7.080;2022-11-13T17:07:28;11.10;99.90
22986;DHT22;11659;51.092;7.080;2022-11-13T17:10:15;10.90;99.90
22986;DHT22;11659;51.092;7.080;2022-11-13T17:12:59;10.80;99.90
22986;DHT22;11659;51.092;7.080;2022-11-13T17:15:44;10.70;99.90
22986;DHT22;11659;51.092;7.080;2022-11-13T17:18:28;10.60;99.90
22986;DHT22;11659;51.092;7.080;2022-11-13T17:21:13;10.60;99.90
22986;DHT22;11659;51.092;7.080;2022-11-13T17:24:00;10.40;99.90
22986;DHT22;11659;51.092;7.080;2022-11-13T17:26:45;10.40;99.90
22986;DHT22;11659;51.092;7.080;2022-11-13T17:29:30;10.30;99.90
22986;DHT22;11659;51.092;7.080;2022-11-13T17:32:14;10.20;99.90
22986;DHT22;11659;51.092;7.080;2022-11-13T17:34:59;10.10;99.90
22986;DHT22;11659;51.092;7.080;2022-11-13T17:37:44;10.00;99.90
22986;DHT22;11659;51.092;7.080;2022-11-13T17:40:30;10.00;99.90
22986;DHT22;11659;51.092;7.080;2022-11-13T17:43:14;9.90;99.90
22986;DHT22;11659;51.092;7.080;2022-11-13T17:45:59;9.90;99.90